createdAt,value
2023-04-30T00:00:41.564Z,7.25
2023-04-30T00:01:43.711Z,7.20
2023-04-30T00:02:46.142Z,7.20
2023-04-30T00:03:50.071Z,7.25
2023-04-30T00:04:52.224Z,7.47
2023-04-30T00:05:54.391Z,7.90
2023-04-30T00:06:56.595Z,7.65
2023-04-30T00:07:58.699Z,7.70
2023-04-30T00:09:00.864Z,8.05
2023-04-30T00:10:03.219Z,7.40
2023-04-30T00:11:05.624Z,7.70
2023-04-30T00:12:07.700Z,7.30
2023-04-30T00:13:10.368Z,7.38
2023-04-30T00:14:12.485Z,8.00
2023-04-30T00:15:14.684Z,8.23
2023-04-30T00:16:16.816Z,6.85
2023-04-30T00:17:18.931Z,7.82
2023-04-30T00:18:21.032Z,7.88
2023-04-30T00:19:24.970Z,7.15
2023-04-30T00:20:27.043Z,7.57
2023-04-30T00:21:29.202Z,7.57
2023-04-30T00:22:31.334Z,7.78
2023-04-30T00:23:33.443Z,8.30
2023-04-30T00:24:35.649Z,7.97
2023-04-30T00:25:37.750Z,8.15
2023-04-30T00:26:39.920Z,7.95
2023-04-30T00:27:42.021Z,8.82
2023-04-30T00:28:44.096Z,8.05
2023-04-30T00:29:46.216Z,8.50
2023-04-30T00:30:48.334Z,8.27
2023-04-30T00:31:50.744Z,7.95
2023-04-30T00:32:53.116Z,8.70
2023-04-30T00:33:55.252Z,8.70
2023-04-30T00:34:58.757Z,8.70
2023-04-30T00:36:01.004Z,9.23
2023-04-30T00:37:03.701Z,9.23
2023-04-30T00:38:05.839Z,8.25
2023-04-30T00:39:07.951Z,8.30
2023-04-30T00:40:11.156Z,8.95
2023-04-30T00:41:13.883Z,8.32
2023-04-30T00:42:15.995Z,8.55
2023-04-30T00:43:18.127Z,8.55
2023-04-30T00:44:20.691Z,8.80
2023-04-30T00:45:23.521Z,9.15
2023-04-30T00:46:25.901Z,8.60
2023-04-30T00:47:28.246Z,8.57
2023-04-30T00:48:30.661Z,8.50
2023-04-30T00:49:33.221Z,8.70
2023-04-30T00:50:38.047Z,8.77
2023-04-30T00:51:41.286Z,8.95
2023-04-30T00:52:43.622Z,8.40
2023-04-30T00:53:46.157Z,8.05
2023-04-30T00:54:48.766Z,8.90
2023-04-30T00:55:50.952Z,9.15
2023-04-30T00:56:53.124Z,9.55
2023-04-30T00:57:55.578Z,8.80
2023-04-30T00:58:57.984Z,9.23
2023-04-30T01:00:00.224Z,8.70
2023-04-30T01:01:03.660Z,8.68
2023-04-30T01:02:05.860Z,9.07
2023-04-30T01:03:08.250Z,8.73
2023-04-30T01:04:10.887Z,9.48
2023-04-30T01:05:13.016Z,9.80
2023-04-30T01:06:16.576Z,9.10
2023-04-30T01:07:18.807Z,9.98
2023-04-30T01:08:21.719Z,9.20
2023-04-30T01:09:23.986Z,9.35
2023-04-30T01:10:35.975Z,10.00
2023-04-30T01:11:50.042Z,9.82
2023-04-30T01:13:04.183Z,9.57
2023-04-30T01:14:10.668Z,10.00
2023-04-30T01:15:19.267Z,10.63
2023-04-30T01:16:25.921Z,10.30
2023-04-30T01:17:33.973Z,10.80
2023-04-30T01:18:42.148Z,11.32
2023-04-30T01:19:46.068Z,11.27
2023-04-30T01:20:50.570Z,11.40
2023-04-30T01:21:55.449Z,12.35
2023-04-30T01:23:14.482Z,11.55
2023-04-30T01:24:32.521Z,11.85
2023-04-30T01:25:52.910Z,12.10
2023-04-30T01:27:07.800Z,13.30
2023-04-30T01:28:14.807Z,12.85
2023-04-30T01:29:19.117Z,12.55
2023-04-30T01:30:22.791Z,13.60
2023-04-30T01:32:35.223Z,13.07
2023-04-30T01:33:44.054Z,13.82
2023-04-30T01:34:46.116Z,14.05
2023-04-30T01:36:10.532Z,14.10
2023-04-30T01:37:21.264Z,14.55
2023-04-30T01:38:44.816Z,14.75
2023-04-30T01:39:57.608Z,15.23
2023-04-30T01:41:09.238Z,14.48
2023-04-30T01:42:17.761Z,14.82
2023-04-30T01:43:32.461Z,13.68
2023-04-30T01:44:58.655Z,14.07
2023-04-30T01:46:13.307Z,13.13
2023-04-30T01:47:29.350Z,12.27
2023-04-30T01:48:40.639Z,12.18
2023-04-30T01:50:55.826Z,12.98
2023-04-30T01:52:04.022Z,14.20
2023-04-30T01:53:09.593Z,15.23
2023-04-30T01:54:21.911Z,15.00
2023-04-30T01:55:29.818Z,14.68
2023-04-30T01:56:38.061Z,15.27
2023-04-30T01:57:43.554Z,14.85
2023-04-30T01:58:50.230Z,16.00
2023-04-30T01:59:52.973Z,14.45
2023-04-30T02:00:55.222Z,15.10
2023-04-30T02:01:57.550Z,16.10
2023-04-30T02:03:00.078Z,17.17
2023-04-30T02:04:04.436Z,16.63
2023-04-30T02:05:07.676Z,16.45
2023-04-30T02:06:09.792Z,17.30
2023-04-30T02:07:17.775Z,17.55
2023-04-30T02:08:19.897Z,17.30
2023-04-30T02:09:24.200Z,17.52
2023-04-30T02:10:27.168Z,17.40
2023-04-30T02:11:29.297Z,16.83
2023-04-30T02:12:31.429Z,17.75
2023-04-30T02:13:33.580Z,17.52
2023-04-30T02:14:37.041Z,16.15
2023-04-30T02:15:39.183Z,17.60
2023-04-30T02:16:41.679Z,18.55
2023-04-30T02:17:44.147Z,17.85
2023-04-30T02:18:46.615Z,16.65
2023-04-30T02:19:48.672Z,17.23
2023-04-30T02:20:50.766Z,16.60
2023-04-30T02:21:52.837Z,16.83
2023-04-30T02:22:55.000Z,14.88
2023-04-30T02:23:57.121Z,15.68
2023-04-30T02:24:59.202Z,15.20
2023-04-30T02:26:01.354Z,13.80
2023-04-30T02:27:03.528Z,13.10
2023-04-30T02:28:05.766Z,12.27
2023-04-30T02:29:07.903Z,13.40
2023-04-30T02:30:11.618Z,10.80
2023-04-30T02:31:13.784Z,12.10
2023-04-30T02:32:16.116Z,12.90
2023-04-30T02:33:18.201Z,12.57
2023-04-30T02:34:20.360Z,11.20
2023-04-30T02:35:22.427Z,11.60
2023-04-30T02:36:24.556Z,11.95
2023-04-30T02:37:26.673Z,12.25
2023-04-30T02:38:28.777Z,11.93
2023-04-30T02:39:30.854Z,11.55
2023-04-30T02:40:33.045Z,10.93
2023-04-30T02:41:35.202Z,11.30
2023-04-30T02:42:37.371Z,10.57
2023-04-30T02:43:39.517Z,11.52
2023-04-30T02:44:41.834Z,10.68
2023-04-30T02:45:45.410Z,11.57
2023-04-30T02:46:47.522Z,10.80
2023-04-30T02:47:49.624Z,12.43
2023-04-30T02:48:51.739Z,12.27
2023-04-30T02:49:54.015Z,11.93
2023-04-30T02:50:56.409Z,12.35
2023-04-30T02:51:58.574Z,11.88
2023-04-30T02:53:00.712Z,12.38
2023-04-30T02:54:02.807Z,11.27
2023-04-30T02:55:05.505Z,10.90
2023-04-30T02:56:08.259Z,11.82
2023-04-30T02:57:10.612Z,11.65
2023-04-30T02:58:13.601Z,12.50
2023-04-30T02:59:15.696Z,11.98
2023-04-30T03:00:18.021Z,12.07
2023-04-30T03:01:21.750Z,11.80
2023-04-30T03:02:24.069Z,12.65
2023-04-30T03:03:26.356Z,12.43
2023-04-30T03:04:28.472Z,12.07
2023-04-30T03:05:30.631Z,12.25
2023-04-30T03:06:33.557Z,12.85
2023-04-30T03:07:36.048Z,12.73
2023-04-30T03:08:38.183Z,11.55
2023-04-30T03:09:40.289Z,13.63
2023-04-30T03:10:42.478Z,13.13
2023-04-30T03:11:44.581Z,13.27
2023-04-30T03:12:46.681Z,13.98
2023-04-30T03:13:52.060Z,12.90
2023-04-30T03:14:54.229Z,13.80
2023-04-30T03:15:59.808Z,13.77
2023-04-30T03:17:03.416Z,12.85
2023-04-30T03:18:06.675Z,13.05
2023-04-30T03:19:08.902Z,13.65
2023-04-30T03:20:12.703Z,13.68
2023-04-30T03:21:15.109Z,13.38
2023-04-30T03:22:19.543Z,12.80
2023-04-30T03:23:21.919Z,12.52
2023-04-30T03:24:25.151Z,11.95
2023-04-30T03:25:27.277Z,13.20
2023-04-30T03:26:29.485Z,13.77
2023-04-30T03:27:31.641Z,13.35
2023-04-30T03:28:33.922Z,13.65
2023-04-30T03:29:36.295Z,12.68
2023-04-30T03:30:39.436Z,14.27
2023-04-30T03:31:41.658Z,13.45
2023-04-30T03:32:46.277Z,14.23
2023-04-30T03:33:48.534Z,13.40
2023-04-30T03:34:50.886Z,13.48
2023-04-30T03:35:53.522Z,13.68
2023-04-30T03:36:55.634Z,14.00
2023-04-30T03:37:57.749Z,13.43
2023-04-30T03:38:59.815Z,13.38
2023-04-30T03:40:01.915Z,13.63
2023-04-30T03:41:04.098Z,14.60
2023-04-30T03:42:06.187Z,13.63
2023-04-30T03:43:08.307Z,14.20
2023-04-30T03:44:15.792Z,13.13
2023-04-30T03:45:18.243Z,13.52
2023-04-30T03:46:20.797Z,12.73
2023-04-30T03:47:22.936Z,14.27
2023-04-30T03:48:27.268Z,13.15
2023-04-30T03:49:29.319Z,13.75
2023-04-30T03:50:31.555Z,13.15
2023-04-30T03:51:33.638Z,13.05
2023-04-30T03:52:36.893Z,12.38
2023-04-30T03:53:38.983Z,12.85
2023-04-30T03:54:41.061Z,12.75
2023-04-30T03:55:43.464Z,12.98
2023-04-30T03:56:45.774Z,13.27
2023-04-30T03:57:48.049Z,11.93
2023-04-30T03:58:50.202Z,13.05
2023-04-30T03:59:52.563Z,12.73
2023-04-30T04:00:54.750Z,12.80
2023-04-30T04:01:56.978Z,12.48
2023-04-30T04:02:59.646Z,11.45
2023-04-30T04:04:03.426Z,12.07
2023-04-30T04:05:06.558Z,11.55
2023-04-30T04:06:08.670Z,11.80
2023-04-30T04:07:11.566Z,11.35
2023-04-30T04:08:13.941Z,12.18
2023-04-30T04:09:16.029Z,12.77
2023-04-30T04:10:18.158Z,11.82
2023-04-30T04:11:20.840Z,11.43
2023-04-30T04:12:23.696Z,11.70
2023-04-30T04:13:26.051Z,11.13
2023-04-30T04:14:28.216Z,10.43
2023-04-30T04:15:31.010Z,10.48
2023-04-30T04:16:33.225Z,10.75
2023-04-30T04:17:35.483Z,11.02
2023-04-30T04:18:37.676Z,10.20
2023-04-30T04:19:41.366Z,8.63
2023-04-30T04:20:43.436Z,8.52
2023-04-30T04:21:45.636Z,8.20
2023-04-30T04:22:47.896Z,7.97
2023-04-30T04:23:50.382Z,8.98
2023-04-30T04:24:52.997Z,8.77
2023-04-30T04:25:55.207Z,8.55
2023-04-30T04:26:58.151Z,8.73
2023-04-30T04:28:00.431Z,8.18
2023-04-30T04:29:04.061Z,7.93
2023-04-30T04:30:07.326Z,9.30
2023-04-30T04:31:09.429Z,7.80
2023-04-30T04:32:11.809Z,8.48
2023-04-30T04:33:13.979Z,8.15
2023-04-30T04:34:16.169Z,8.20
2023-04-30T04:35:20.698Z,8.55
2023-04-30T04:36:23.492Z,7.57
2023-04-30T04:37:25.641Z,8.57
2023-04-30T04:38:27.835Z,8.23
2023-04-30T04:39:29.932Z,8.18
2023-04-30T04:40:32.050Z,7.65
2023-04-30T04:41:38.113Z,7.63
2023-04-30T04:42:40.358Z,8.23
2023-04-30T04:43:42.515Z,7.40
2023-04-30T04:44:44.594Z,8.13
2023-04-30T04:45:48.028Z,8.05
2023-04-30T04:46:54.085Z,7.20
2023-04-30T04:47:56.273Z,7.60
2023-04-30T04:48:58.543Z,7.93
2023-04-30T04:50:00.704Z,7.18
2023-04-30T04:51:04.602Z,7.30
2023-04-30T04:52:07.162Z,7.57
2023-04-30T04:53:09.335Z,6.93
2023-04-30T04:54:11.774Z,7.10
2023-04-30T04:55:14.070Z,6.70
2023-04-30T04:56:16.328Z,6.45
2023-04-30T04:57:18.697Z,6.82
2023-04-30T04:58:20.917Z,6.18
2023-04-30T04:59:23.079Z,6.15
2023-04-30T05:00:25.890Z,6.63
2023-04-30T05:01:28.173Z,5.65
2023-04-30T05:02:30.595Z,6.47
2023-04-30T05:03:33.794Z,6.25
2023-04-30T05:04:36.050Z,6.80
2023-04-30T05:05:38.149Z,6.60
2023-04-30T05:06:42.855Z,6.35
2023-04-30T05:07:45.311Z,6.75
2023-04-30T05:08:47.378Z,6.75
2023-04-30T05:09:49.497Z,6.18
2023-04-30T05:10:51.711Z,6.25
2023-04-30T05:11:53.776Z,5.63
2023-04-30T05:12:56.080Z,5.85
2023-04-30T05:13:58.327Z,5.60
2023-04-30T05:15:01.030Z,5.32
2023-04-30T05:16:03.324Z,5.03
2023-04-30T05:17:06.130Z,5.63
2023-04-30T05:18:08.522Z,5.57
2023-04-30T05:19:10.749Z,5.65
2023-04-30T05:20:13.548Z,5.22
2023-04-30T05:21:16.151Z,4.10
2023-04-30T05:22:19.704Z,4.63
2023-04-30T05:23:22.000Z,4.55
2023-04-30T05:24:24.407Z,4.55
2023-04-30T05:25:26.584Z,3.85
2023-04-30T05:26:28.719Z,3.70
2023-04-30T05:27:30.861Z,3.30
2023-04-30T05:28:33.896Z,3.53
2023-04-30T05:29:36.073Z,4.22
2023-04-30T05:30:38.307Z,3.65
2023-04-30T05:31:40.564Z,3.72
2023-04-30T05:32:43.232Z,3.13
2023-04-30T05:33:45.369Z,2.80
2023-04-30T05:34:47.502Z,2.90
2023-04-30T05:35:49.641Z,2.60
2023-04-30T05:36:51.723Z,2.33
2023-04-30T05:37:55.246Z,2.85
2023-04-30T05:38:57.325Z,2.70
2023-04-30T05:39:59.871Z,2.20
2023-04-30T05:41:02.016Z,2.20
2023-04-30T05:42:04.264Z,2.38
2023-04-30T05:43:06.450Z,2.35
2023-04-30T05:44:09.005Z,1.70
2023-04-30T05:45:14.788Z,2.10
2023-04-30T05:46:17.000Z,2.10
2023-04-30T05:47:19.082Z,1.95
2023-04-30T05:48:21.317Z,1.67
2023-04-30T05:49:23.459Z,1.40
2023-04-30T05:50:25.653Z,1.88
2023-04-30T05:51:28.075Z,1.52
2023-04-30T05:52:30.243Z,1.25
2023-04-30T05:53:33.718Z,1.40
2023-04-30T05:54:36.779Z,1.50
2023-04-30T05:55:39.025Z,1.58
2023-04-30T05:56:41.264Z,1.30
2023-04-30T05:57:43.426Z,1.42
2023-04-30T05:58:46.193Z,1.40
2023-04-30T05:59:48.433Z,1.23
2023-04-30T06:00:52.046Z,1.30
2023-04-30T06:01:54.160Z,1.45
2023-04-30T06:02:56.440Z,1.27
2023-04-30T06:04:01.296Z,1.35
2023-04-30T06:05:03.817Z,1.20
2023-04-30T06:06:06.165Z,1.55
2023-04-30T06:07:08.334Z,1.30
2023-04-30T06:08:10.469Z,1.05
2023-04-30T06:09:13.944Z,1.25
2023-04-30T06:10:17.001Z,1.13
2023-04-30T06:11:19.161Z,1.20
2023-04-30T06:12:21.496Z,1.23
2023-04-30T06:13:23.723Z,1.30
2023-04-30T06:14:25.975Z,1.20
2023-04-30T06:15:28.331Z,1.00
2023-04-30T06:16:30.803Z,1.15
2023-04-30T06:17:32.992Z,1.00
2023-04-30T06:18:35.148Z,1.15
2023-04-30T06:19:39.014Z,0.80
2023-04-30T06:20:41.593Z,0.90
2023-04-30T06:21:44.062Z,0.82
2023-04-30T06:22:46.198Z,1.10
2023-04-30T06:23:48.293Z,1.10
2023-04-30T06:24:51.769Z,1.17
2023-04-30T06:25:53.872Z,1.30
2023-04-30T06:26:56.035Z,1.15
2023-04-30T06:27:58.144Z,1.40
2023-04-30T06:29:00.385Z,1.33
2023-04-30T06:30:02.500Z,1.15
2023-04-30T06:31:04.826Z,1.52
2023-04-30T06:32:08.518Z,5.90
2023-04-30T06:33:10.860Z,1.40
2023-04-30T06:34:13.063Z,1.17
2023-04-30T06:35:15.625Z,1.10
2023-04-30T06:36:17.737Z,1.08
2023-04-30T06:37:20.213Z,1.30
2023-04-30T06:38:22.416Z,0.95
2023-04-30T06:39:24.680Z,0.95
2023-04-30T06:40:28.185Z,0.80
2023-04-30T06:41:30.587Z,0.90
2023-04-30T06:42:35.967Z,0.88
2023-04-30T06:43:38.588Z,0.88
2023-04-30T06:44:40.818Z,1.00
2023-04-30T06:45:42.908Z,1.13
2023-04-30T06:46:45.101Z,1.10
2023-04-30T06:47:47.498Z,0.90
2023-04-30T06:48:49.623Z,1.10
2023-04-30T06:49:51.750Z,1.00
2023-04-30T06:50:53.884Z,0.95
2023-04-30T06:51:59.453Z,0.80
2023-04-30T06:53:01.648Z,0.70
2023-04-30T06:54:03.845Z,1.10
2023-04-30T06:55:06.812Z,0.85
2023-04-30T06:56:10.322Z,0.80
2023-04-30T06:57:12.625Z,0.98
2023-04-30T06:58:14.929Z,1.13
2023-04-30T06:59:17.883Z,1.13
2023-04-30T07:00:20.227Z,0.90
2023-04-30T07:01:22.389Z,1.00
2023-04-30T07:02:24.565Z,0.98
2023-04-30T07:03:27.335Z,1.40
2023-04-30T07:04:29.512Z,1.33
2023-04-30T07:05:32.137Z,1.02
2023-04-30T07:06:34.283Z,1.30
2023-04-30T07:07:36.392Z,1.20
2023-04-30T07:08:41.129Z,1.48
2023-04-30T07:09:43.294Z,1.50
2023-04-30T07:10:45.575Z,1.25
2023-04-30T07:11:49.305Z,1.20
2023-04-30T07:12:51.505Z,1.48
2023-04-30T07:13:53.732Z,1.10
2023-04-30T07:14:55.893Z,1.42
2023-04-30T07:15:59.512Z,1.30
2023-04-30T07:17:01.844Z,1.20
2023-04-30T07:18:04.597Z,1.08
2023-04-30T07:19:06.729Z,1.10
2023-04-30T07:20:10.328Z,1.05
2023-04-30T07:21:12.520Z,0.98
2023-04-30T07:22:14.624Z,1.13
2023-04-30T07:23:16.721Z,1.55
2023-04-30T07:24:18.936Z,1.05
2023-04-30T07:25:21.166Z,1.13
2023-04-30T07:26:25.918Z,1.05
2023-04-30T07:27:29.417Z,1.05
2023-04-30T07:28:31.514Z,0.80
2023-04-30T07:29:33.653Z,0.85
2023-04-30T07:30:35.861Z,1.00
2023-04-30T07:31:38.130Z,1.05
2023-04-30T07:32:41.612Z,0.95
2023-04-30T07:33:44.059Z,1.00
2023-04-30T07:34:46.344Z,1.00
2023-04-30T07:35:48.509Z,0.90
2023-04-30T07:36:50.875Z,1.00
2023-04-30T07:37:53.031Z,0.77
2023-04-30T07:38:55.139Z,0.80
2023-04-30T07:39:57.407Z,1.10
2023-04-30T07:40:59.571Z,0.70
2023-04-30T07:42:02.990Z,0.82
2023-04-30T07:43:06.485Z,0.95
2023-04-30T07:44:08.568Z,0.82
2023-04-30T07:45:10.946Z,0.90
2023-04-30T07:46:13.071Z,0.90
2023-04-30T07:47:15.356Z,0.57
2023-04-30T07:48:18.024Z,0.63
2023-04-30T07:49:20.145Z,0.77
2023-04-30T07:50:22.201Z,0.70
2023-04-30T07:51:24.301Z,0.60
2023-04-30T07:52:26.420Z,0.88
2023-04-30T07:53:28.655Z,0.82
2023-04-30T07:54:31.106Z,0.80
2023-04-30T07:55:33.194Z,1.13
2023-04-30T07:56:36.122Z,0.77
2023-04-30T07:57:38.171Z,0.82
2023-04-30T07:58:41.764Z,0.65
2023-04-30T07:59:43.874Z,0.80
2023-04-30T08:00:46.017Z,1.15
2023-04-30T08:01:48.172Z,0.90
2023-04-30T08:02:50.791Z,0.70
2023-04-30T08:03:53.351Z,1.13
2023-04-30T08:04:55.526Z,0.80
2023-04-30T08:05:57.708Z,1.02
2023-04-30T08:06:59.832Z,0.90
2023-04-30T08:08:02.238Z,0.75
2023-04-30T08:09:04.774Z,0.88
2023-04-30T08:10:07.973Z,0.60
2023-04-30T08:11:10.823Z,1.10
2023-04-30T08:12:12.935Z,0.90
2023-04-30T08:13:15.084Z,0.70
2023-04-30T08:14:19.328Z,0.90
2023-04-30T08:15:24.340Z,1.17
2023-04-30T08:16:26.484Z,0.90
2023-04-30T08:17:28.649Z,0.80
2023-04-30T08:18:32.269Z,0.75
2023-04-30T08:19:34.380Z,0.63
2023-04-30T08:20:38.022Z,0.93
2023-04-30T08:21:40.848Z,0.90
2023-04-30T08:22:43.054Z,0.80
2023-04-30T08:23:45.178Z,0.70
2023-04-30T08:24:47.397Z,0.80
2023-04-30T08:25:49.467Z,0.63
2023-04-30T08:26:54.154Z,0.80
2023-04-30T08:27:56.908Z,0.90
2023-04-30T08:28:59.033Z,0.73
2023-04-30T08:30:02.532Z,0.60
2023-04-30T08:31:05.043Z,0.68
2023-04-30T08:32:07.402Z,0.70
2023-04-30T08:33:09.861Z,0.80
2023-04-30T08:34:12.022Z,0.55
2023-04-30T08:35:14.473Z,0.60
2023-04-30T08:36:16.604Z,0.88
2023-04-30T08:37:18.693Z,0.60
2023-04-30T08:38:20.944Z,0.65
2023-04-30T08:39:23.031Z,0.70
2023-04-30T08:40:43.430Z,0.93
2023-04-30T08:41:56.075Z,0.77
2023-04-30T08:43:05.068Z,0.77
2023-04-30T08:44:08.526Z,0.70
2023-04-30T08:45:13.070Z,0.63
2023-04-30T08:46:17.522Z,0.80
2023-04-30T08:47:20.862Z,0.63
2023-04-30T08:48:25.030Z,0.80
2023-04-30T08:49:28.274Z,0.80
2023-04-30T08:50:31.166Z,0.52
2023-04-30T08:51:35.259Z,0.50
2023-04-30T08:52:38.965Z,0.90
2023-04-30T08:53:42.264Z,0.70
2023-04-30T08:54:44.941Z,0.65
2023-04-30T08:55:47.439Z,0.73
2023-04-30T08:56:49.984Z,0.80
2023-04-30T08:57:52.147Z,0.70
2023-04-30T08:58:54.302Z,0.77
2023-04-30T08:59:56.982Z,0.70
2023-04-30T09:01:02.455Z,0.77
2023-04-30T09:02:05.611Z,0.65
2023-04-30T09:03:08.576Z,0.63
2023-04-30T09:04:11.815Z,0.70
2023-04-30T09:05:15.261Z,0.60
2023-04-30T09:06:17.571Z,0.63
2023-04-30T09:07:23.724Z,0.68
2023-04-30T09:08:41.741Z,0.70
2023-04-30T09:09:44.366Z,0.40
2023-04-30T09:10:46.731Z,0.52
2023-04-30T09:11:48.822Z,0.50
2023-04-30T09:13:01.701Z,0.63
2023-04-30T09:14:03.877Z,0.50
2023-04-30T09:15:11.705Z,0.50
2023-04-30T09:16:15.280Z,0.52
2023-04-30T09:17:22.987Z,0.57
2023-04-30T09:18:25.369Z,0.57
2023-04-30T09:19:28.721Z,0.50
2023-04-30T09:20:30.862Z,0.57
2023-04-30T09:21:33.851Z,0.60
2023-04-30T09:22:37.298Z,0.63
2023-04-30T09:23:55.623Z,0.60
2023-04-30T09:24:57.701Z,0.70
2023-04-30T09:26:00.815Z,0.63
2023-04-30T09:27:16.518Z,0.80
2023-04-30T09:28:23.632Z,0.60
2023-04-30T09:29:37.060Z,0.60
2023-04-30T09:30:39.942Z,0.63
2023-04-30T09:31:47.191Z,1.00
2023-04-30T09:32:56.502Z,0.70
2023-04-30T09:33:59.157Z,0.80
2023-04-30T09:35:01.261Z,0.70
2023-04-30T09:36:09.829Z,0.93
2023-04-30T09:37:12.445Z,0.60
2023-04-30T09:38:28.658Z,0.60
2023-04-30T09:39:30.995Z,0.60
2023-04-30T09:40:35.410Z,0.50
2023-04-30T09:41:37.545Z,0.50
2023-04-30T09:42:40.102Z,0.40
2023-04-30T09:43:45.656Z,0.45
2023-04-30T09:44:48.965Z,0.40
2023-04-30T09:45:52.464Z,0.50
2023-04-30T09:46:56.581Z,0.40
2023-04-30T09:48:12.829Z,0.50
2023-04-30T09:49:20.800Z,0.30
2023-04-30T09:50:26.633Z,0.47
2023-04-30T09:51:29.295Z,0.57
2023-04-30T09:52:31.896Z,0.40
2023-04-30T09:53:38.013Z,0.50
2023-04-30T09:54:41.230Z,0.50
2023-04-30T09:55:45.412Z,0.38
2023-04-30T09:56:47.927Z,0.52
2023-04-30T09:57:50.429Z,0.30
2023-04-30T09:58:54.712Z,0.40
2023-04-30T09:59:58.404Z,0.30
2023-04-30T10:01:03.505Z,0.47
2023-04-30T10:02:08.320Z,0.50
2023-04-30T10:03:12.235Z,0.47
2023-04-30T10:04:15.215Z,0.40
2023-04-30T10:05:18.214Z,0.65
2023-04-30T10:06:22.080Z,0.50
2023-04-30T10:07:26.502Z,0.50
2023-04-30T10:08:31.499Z,0.40
2023-04-30T10:09:40.205Z,0.70
2023-04-30T10:10:45.404Z,0.50
2023-04-30T10:11:47.913Z,0.50
2023-04-30T10:12:53.153Z,0.30
2023-04-30T10:14:01.884Z,0.50
2023-04-30T10:15:10.727Z,0.70
2023-04-30T10:16:21.720Z,0.43
2023-04-30T10:17:28.228Z,0.57
2023-04-30T10:18:35.096Z,0.60
2023-04-30T10:19:41.738Z,0.63
2023-04-30T10:20:49.026Z,0.40
2023-04-30T10:21:51.699Z,0.50
2023-04-30T10:23:01.410Z,0.50
2023-04-30T10:24:04.802Z,0.40
2023-04-30T10:25:11.386Z,0.50
2023-04-30T10:26:14.275Z,0.50
2023-04-30T10:27:16.882Z,0.30
2023-04-30T10:28:19.350Z,0.40
2023-04-30T10:29:21.512Z,0.40
2023-04-30T10:30:23.914Z,0.47
2023-04-30T10:31:30.818Z,0.40
2023-04-30T10:32:41.969Z,0.43
2023-04-30T10:35:00.064Z,0.45
2023-04-30T10:36:05.891Z,0.50
2023-04-30T10:37:15.100Z,0.57
2023-04-30T10:38:22.444Z,0.50
2023-04-30T10:39:27.726Z,0.50
2023-04-30T10:40:29.828Z,0.40
2023-04-30T10:41:32.161Z,0.60
2023-04-30T10:42:35.824Z,0.43
2023-04-30T10:43:38.337Z,0.40
2023-04-30T10:44:40.517Z,0.30
2023-04-30T10:45:44.306Z,0.20
2023-04-30T10:46:46.863Z,0.80
2023-04-30T10:47:50.440Z,0.60
2023-04-30T10:48:55.088Z,0.43
2023-04-30T10:50:03.325Z,0.57
2023-04-30T10:51:05.734Z,0.52
2023-04-30T10:52:07.840Z,0.30
2023-04-30T10:53:15.996Z,0.50
2023-04-30T10:54:25.465Z,0.30
2023-04-30T10:55:30.379Z,0.20
2023-04-30T10:56:33.186Z,0.40
2023-04-30T10:57:42.577Z,0.38
2023-04-30T10:58:46.238Z,0.40
2023-04-30T10:59:53.581Z,0.50
2023-04-30T11:01:04.465Z,0.30
2023-04-30T11:02:10.811Z,0.50
2023-04-30T11:03:14.653Z,0.40
2023-04-30T11:04:16.789Z,0.40
2023-04-30T11:05:19.885Z,0.40
2023-04-30T11:06:26.681Z,0.40
2023-04-30T11:07:29.045Z,0.60
2023-04-30T11:08:35.797Z,0.40
2023-04-30T11:09:41.489Z,0.93
2023-04-30T11:10:58.990Z,0.73
2023-04-30T11:12:03.777Z,0.73
2023-04-30T11:13:07.816Z,0.57
2023-04-30T11:14:12.416Z,0.70
2023-04-30T11:15:16.689Z,0.73
2023-04-30T11:16:20.334Z,0.65
2023-04-30T11:17:24.018Z,0.40
2023-04-30T11:18:29.214Z,0.40
2023-04-30T11:19:34.729Z,0.30
2023-04-30T11:20:41.815Z,0.43
2023-04-30T11:22:15.879Z,0.40
2023-04-30T11:23:37.903Z,0.32
2023-04-30T11:25:03.881Z,0.40
2023-04-30T11:26:07.899Z,0.40
2023-04-30T11:27:13.903Z,0.40
2023-04-30T11:28:18.090Z,0.43
2023-04-30T11:29:20.432Z,0.50
2023-04-30T11:30:24.044Z,0.70
2023-04-30T11:31:34.608Z,0.45
2023-04-30T11:32:38.193Z,0.40
2023-04-30T11:33:41.790Z,0.25
2023-04-30T11:34:45.065Z,0.68
2023-04-30T11:35:49.444Z,0.73
2023-04-30T11:36:52.675Z,0.40
2023-04-30T11:37:57.016Z,0.52
2023-04-30T11:38:59.630Z,0.70
2023-04-30T11:40:04.176Z,0.55
2023-04-30T11:41:06.828Z,0.90
2023-04-30T11:42:09.044Z,0.47
2023-04-30T11:43:25.036Z,0.35
2023-04-30T11:44:27.532Z,1.00
2023-04-30T11:45:30.440Z,0.70
2023-04-30T11:46:32.723Z,0.75
2023-04-30T11:47:42.633Z,0.40
2023-04-30T11:48:46.769Z,0.40
2023-04-30T11:49:52.106Z,0.40
2023-04-30T11:50:54.229Z,0.70
2023-04-30T11:51:56.385Z,0.45
2023-04-30T11:53:01.907Z,0.40
2023-04-30T11:54:08.258Z,0.30
2023-04-30T11:55:18.725Z,0.55
2023-04-30T11:56:22.451Z,0.57
2023-04-30T11:57:24.918Z,0.68
2023-04-30T11:58:28.925Z,0.38
2023-04-30T11:59:32.040Z,0.40
2023-04-30T12:00:34.634Z,0.40
2023-04-30T12:01:37.253Z,0.50
2023-04-30T12:02:39.933Z,0.40
2023-04-30T12:03:43.464Z,0.60
2023-04-30T12:04:47.484Z,0.52
2023-04-30T12:05:49.586Z,0.50
2023-04-30T12:06:51.821Z,0.55
2023-04-30T12:07:56.975Z,0.40
2023-04-30T12:09:11.747Z,0.50
2023-04-30T12:10:14.197Z,0.98
2023-04-30T12:11:26.601Z,0.60
2023-04-30T12:12:40.544Z,0.63
2023-04-30T12:13:51.144Z,0.30
2023-04-30T12:14:53.389Z,0.30
2023-04-30T12:15:59.834Z,0.50
2023-04-30T12:17:02.226Z,0.40
2023-04-30T12:18:13.347Z,0.60
2023-04-30T12:19:16.210Z,0.38
2023-04-30T12:20:26.447Z,0.30
2023-04-30T12:21:29.111Z,0.43
2023-04-30T12:22:31.468Z,0.40
2023-04-30T12:23:33.898Z,0.40
2023-04-30T12:24:36.119Z,0.38
2023-04-30T12:25:43.808Z,0.43
2023-04-30T12:26:46.651Z,0.40
2023-04-30T12:27:50.885Z,0.50
2023-04-30T12:28:53.025Z,0.40
2023-04-30T12:29:56.508Z,0.80
2023-04-30T12:30:59.972Z,0.90
2023-04-30T12:32:02.114Z,0.50
2023-04-30T12:33:04.355Z,0.47
2023-04-30T12:34:07.593Z,0.40
2023-04-30T12:35:14.510Z,0.65
2023-04-30T12:36:18.082Z,0.63
2023-04-30T12:37:21.413Z,0.63
2023-04-30T12:38:23.635Z,0.98
2023-04-30T12:39:26.224Z,0.80
2023-04-30T12:40:28.688Z,1.23
2023-04-30T12:41:30.805Z,1.33
2023-04-30T12:42:34.348Z,1.10
2023-04-30T12:43:36.448Z,0.75
2023-04-30T12:44:47.102Z,0.98
2023-04-30T12:45:52.140Z,1.42
2023-04-30T12:46:57.310Z,1.50
2023-04-30T12:47:59.614Z,1.00
2023-04-30T12:49:01.890Z,1.13
2023-04-30T12:50:04.597Z,1.00
2023-04-30T12:51:06.792Z,1.90
2023-04-30T12:52:12.485Z,2.10
2023-04-30T12:53:14.663Z,1.40
2023-04-30T12:54:24.675Z,1.55
2023-04-30T12:55:27.113Z,1.40
2023-04-30T12:56:29.301Z,1.00
2023-04-30T12:57:31.490Z,1.13
2023-04-30T12:58:34.002Z,1.45
2023-04-30T12:59:38.711Z,1.08
2023-04-30T13:00:45.011Z,1.20
2023-04-30T13:01:47.388Z,1.25
2023-04-30T13:02:50.414Z,2.72
2023-04-30T13:03:53.956Z,1.80
2023-04-30T13:04:57.054Z,2.03
2023-04-30T13:05:59.649Z,1.83
2023-04-30T13:07:01.766Z,1.30
2023-04-30T13:08:09.491Z,1.45
2023-04-30T13:09:12.571Z,1.40
2023-04-30T13:10:15.002Z,1.50
2023-04-30T13:11:17.170Z,1.60
2023-04-30T13:12:20.199Z,1.50
2023-04-30T13:13:22.363Z,1.40
2023-04-30T13:14:24.737Z,1.17
2023-04-30T13:15:27.025Z,1.25
2023-04-30T13:16:30.960Z,1.20
2023-04-30T13:17:33.409Z,1.10
2023-04-30T13:18:35.523Z,1.30
2023-04-30T13:19:37.634Z,1.40
2023-04-30T13:20:39.848Z,1.05
2023-04-30T13:21:42.201Z,1.85
2023-04-30T13:22:44.368Z,1.88
2023-04-30T13:23:53.436Z,1.48
2023-04-30T13:24:56.970Z,1.55
2023-04-30T13:25:59.466Z,1.50
2023-04-30T13:27:14.134Z,1.48
2023-04-30T13:28:16.876Z,1.15
2023-04-30T13:29:21.035Z,1.20
2023-04-30T13:30:23.810Z,0.75
2023-04-30T13:31:26.316Z,1.10
2023-04-30T13:32:28.577Z,1.20
2023-04-30T13:33:30.969Z,1.30
2023-04-30T13:34:33.103Z,1.50
2023-04-30T13:35:35.417Z,1.40
2023-04-30T13:36:37.649Z,1.55
2023-04-30T13:37:40.189Z,1.52
2023-04-30T13:38:42.828Z,1.50
2023-04-30T13:39:46.575Z,1.55
2023-04-30T13:40:48.719Z,1.40
2023-04-30T13:41:50.814Z,1.52
2023-04-30T13:42:52.910Z,1.55
2023-04-30T13:43:55.067Z,1.40
2023-04-30T13:44:57.734Z,1.13
2023-04-30T13:46:00.104Z,1.20
2023-04-30T13:47:02.385Z,0.90
2023-04-30T13:48:04.912Z,1.20
2023-04-30T13:49:07.083Z,1.05
2023-04-30T13:50:10.011Z,0.90
2023-04-30T13:51:12.116Z,1.10
2023-04-30T13:52:14.241Z,0.90
2023-04-30T13:53:16.374Z,0.90
2023-04-30T13:54:18.583Z,1.30
2023-04-30T13:55:22.800Z,1.10
2023-04-30T13:56:25.496Z,1.20
2023-04-30T13:57:30.059Z,1.20
2023-04-30T13:58:32.732Z,1.27
2023-04-30T13:59:34.900Z,1.40
2023-04-30T14:00:37.134Z,1.42
2023-04-30T14:01:40.429Z,1.05
2023-04-30T14:02:42.641Z,1.15
2023-04-30T14:03:44.957Z,1.10
2023-04-30T14:04:58.392Z,1.20
2023-04-30T14:06:07.958Z,1.20
2023-04-30T14:07:10.219Z,0.90